UAII 252300Z 13004MPS CAVOK 18/10 Q1009 NOSIG RMK QFE722/0962
QNH:(hPa/inHg/mmHg)1009 / 29.8 / 757
QFE:(hPa/inHg/mmHg)958 / 28.28 / 718
Temperature18
Dew Point10
Visibility> 10000
WeatherCAVOK
Cloud Cover
Transition Altitude10000 ft.
Transition LevelFL120
SQUAWK